createdAt,value
2017-12-03T00:00:05.066Z,101410
2017-12-03T00:02:33.309Z,101408
2017-12-03T00:05:01.622Z,101398
2017-12-03T00:07:29.934Z,101400
2017-12-03T00:09:58.291Z,101393
2017-12-03T00:12:27.353Z,101402
2017-12-03T00:14:55.585Z,101397
2017-12-03T00:17:23.948Z,101400
2017-12-03T00:19:52.268Z,101402
2017-12-03T00:22:21.371Z,101402
2017-12-03T00:24:49.624Z,101398
2017-12-03T00:27:17.980Z,101399
2017-12-03T00:29:47.100Z,101410
2017-12-03T00:32:15.532Z,101399
2017-12-03T00:34:44.603Z,101405
2017-12-03T00:37:12.996Z,101402
2017-12-03T00:39:41.290Z,101409
2017-12-03T00:42:10.390Z,101402
2017-12-03T00:44:39.454Z,101406
2017-12-03T00:47:07.700Z,101410
2017-12-03T00:49:36.085Z,101402
2017-12-03T00:52:04.320Z,101396
2017-12-03T00:54:32.564Z,101409
2017-12-03T00:57:00.902Z,101409
2017-12-03T00:59:29.216Z,101400
2017-12-03T01:01:57.514Z,101399
2017-12-03T01:04:25.809Z,101404
2017-12-03T01:06:54.132Z,101406
2017-12-03T01:09:22.428Z,101414
2017-12-03T01:11:51.489Z,101408
2017-12-03T01:14:19.784Z,101407
2017-12-03T01:16:48.077Z,101412
2017-12-03T01:19:16.435Z,101420
2017-12-03T01:21:44.688Z,101408
2017-12-03T01:24:12.934Z,101419
2017-12-03T01:26:41.256Z,101404
2017-12-03T01:29:09.561Z,101408
2017-12-03T01:31:38.594Z,101403
2017-12-03T01:34:06.915Z,101391
2017-12-03T01:36:35.197Z,101390
2017-12-03T01:39:03.477Z,101384
2017-12-03T01:41:31.978Z,101385
2017-12-03T01:44:01.042Z,101377
2017-12-03T01:46:29.324Z,101385
2017-12-03T01:48:57.634Z,101383
2017-12-03T01:51:25.881Z,101368
2017-12-03T01:53:54.136Z,101375
2017-12-03T01:56:22.425Z,101367
2017-12-03T01:58:50.691Z,101371
2017-12-03T02:01:18.929Z,101372
2017-12-03T02:03:47.208Z,101369
2017-12-03T02:06:15.448Z,101378
2017-12-03T02:08:43.712Z,101370
2017-12-03T02:11:12.002Z,101369
2017-12-03T02:13:41.056Z,101364
2017-12-03T02:16:09.313Z,101376
2017-12-03T02:18:37.611Z,101367
2017-12-03T02:21:05.872Z,101361
2017-12-03T02:23:34.176Z,101364
2017-12-03T02:26:02.455Z,101358
2017-12-03T02:28:30.716Z,101356
2017-12-03T02:30:58.983Z,101345
2017-12-03T02:33:27.331Z,101338
2017-12-03T02:35:56.360Z,101337
2017-12-03T02:38:24.725Z,101337
2017-12-03T02:40:54.072Z,101337
2017-12-03T02:43:22.498Z,101349
2017-12-03T02:45:50.789Z,101346
2017-12-03T02:48:19.094Z,101343
2017-12-03T02:50:47.383Z,101351
2017-12-03T02:53:15.671Z,101348
2017-12-03T02:55:44.002Z,101343
2017-12-03T02:58:12.251Z,101358
2017-12-03T03:00:40.534Z,101347
2017-12-03T03:03:08.837Z,101343
2017-12-03T03:05:37.131Z,101351
2017-12-03T03:08:05.404Z,101340
2017-12-03T03:10:34.528Z,101339
2017-12-03T03:13:02.792Z,101335
2017-12-03T03:15:31.047Z,101328
2017-12-03T03:18:00.154Z,101338
2017-12-03T03:20:28.431Z,101335
2017-12-03T03:22:56.677Z,101323
2017-12-03T03:25:24.988Z,101320
2017-12-03T03:27:53.315Z,101322
2017-12-03T03:30:21.656Z,101320
2017-12-03T03:32:50.068Z,101313
2017-12-03T03:35:18.328Z,101316
2017-12-03T03:37:46.616Z,101310
2017-12-03T03:40:14.908Z,101299
2017-12-03T03:42:43.231Z,101296
2017-12-03T03:45:11.576Z,101300
2017-12-03T03:47:39.855Z,101295
2017-12-03T03:50:08.132Z,101297
2017-12-03T03:52:36.382Z,101294
2017-12-03T03:55:04.659Z,101306
2017-12-03T03:57:32.962Z,101316
2017-12-03T04:00:01.203Z,101301
2017-12-03T04:02:29.519Z,101305
2017-12-03T04:04:58.586Z,101296
2017-12-03T04:07:26.833Z,101304
2017-12-03T04:09:55.142Z,101299
2017-12-03T04:12:23.412Z,101299
2017-12-03T04:14:51.642Z,101290
2017-12-03T04:17:19.913Z,101286
2017-12-03T04:19:48.169Z,101283
2017-12-03T04:22:16.457Z,101278
2017-12-03T04:24:45.537Z,101274
2017-12-03T04:27:14.549Z,101275
2017-12-03T04:29:43.289Z,101270
2017-12-03T04:32:11.567Z,101275
2017-12-03T04:34:39.843Z,101267
2017-12-03T04:37:08.127Z,101256
2017-12-03T04:39:36.435Z,101239
2017-12-03T04:42:04.721Z,101237
2017-12-03T04:44:33.021Z,101227
2017-12-03T04:47:01.863Z,101227
2017-12-03T04:49:30.894Z,101228
2017-12-03T04:51:59.170Z,101238
2017-12-03T04:54:27.463Z,101229
2017-12-03T04:56:55.749Z,101228
2017-12-03T04:59:24.030Z,101234
2017-12-03T05:01:52.302Z,101230
2017-12-03T05:04:20.548Z,101235
2017-12-03T05:06:49.551Z,101234
2017-12-03T05:09:17.841Z,101228
2017-12-03T05:11:46.195Z,101228
2017-12-03T05:14:14.560Z,101229
2017-12-03T05:16:42.878Z,101235
2017-12-03T05:19:11.162Z,101239
2017-12-03T05:21:39.431Z,101236
2017-12-03T05:24:07.760Z,101230
2017-12-03T05:26:36.093Z,101230
2017-12-03T05:29:04.346Z,101220
2017-12-03T05:31:32.660Z,101230
2017-12-03T05:34:00.908Z,101236
2017-12-03T05:36:29.154Z,101239
2017-12-03T05:38:57.467Z,101241
2017-12-03T05:41:25.720Z,101257
2017-12-03T05:43:53.974Z,101248
2017-12-03T05:46:22.286Z,101254
2017-12-03T05:48:50.543Z,101254
2017-12-03T05:51:18.818Z,101258
2017-12-03T05:53:47.112Z,101268
2017-12-03T05:56:16.124Z,101259
2017-12-03T05:58:44.367Z,101260
2017-12-03T06:01:12.689Z,101257
2017-12-03T06:03:40.990Z,101251
2017-12-03T06:06:09.420Z,101255
2017-12-03T06:08:37.696Z,101259
2017-12-03T06:11:05.934Z,101254
2017-12-03T06:13:34.225Z,101249
2017-12-03T06:16:03.283Z,101255
2017-12-03T06:18:31.563Z,101266
2017-12-03T06:20:59.821Z,101264
2017-12-03T06:23:28.351Z,101273
2017-12-03T06:25:56.613Z,101278
2017-12-03T06:28:24.891Z,101277
2017-12-03T06:30:53.988Z,101283
2017-12-03T06:33:22.231Z,101274
2017-12-03T06:35:51.256Z,101290
2017-12-03T06:38:19.551Z,101302
2017-12-03T06:40:47.816Z,101301
2017-12-03T06:43:16.063Z,101308
2017-12-03T06:45:44.401Z,101313
2017-12-03T06:48:12.690Z,101317
2017-12-03T06:50:40.928Z,101326
2017-12-03T06:53:09.205Z,101334
2017-12-03T06:55:37.457Z,101332
2017-12-03T06:58:05.745Z,101330
2017-12-03T07:00:34.068Z,101326
2017-12-03T07:03:02.338Z,101331
2017-12-03T07:05:31.612Z,101322
2017-12-03T07:07:59.918Z,101307
2017-12-03T07:10:28.228Z,101301
2017-12-03T07:12:56.493Z,101296
2017-12-03T07:15:24.798Z,101305
2017-12-03T07:17:53.123Z,101314
2017-12-03T07:20:21.492Z,101312
2017-12-03T07:22:49.835Z,101313
2017-12-03T07:25:18.099Z,101307
2017-12-03T07:27:46.388Z,101313
2017-12-03T07:30:14.685Z,101318
2017-12-03T07:32:42.936Z,101326
2017-12-03T07:35:11.219Z,101305
2017-12-03T07:37:39.531Z,101308
2017-12-03T07:40:08.588Z,101314
2017-12-03T07:42:36.905Z,101304
2017-12-03T07:45:05.973Z,101303
2017-12-03T07:47:34.261Z,101292
2017-12-03T07:50:02.521Z,101295
2017-12-03T07:52:30.791Z,101295
2017-12-03T07:54:59.048Z,101297
2017-12-03T07:57:27.281Z,101287
2017-12-03T07:59:55.587Z,101291
2017-12-03T08:02:23.865Z,101288
2017-12-03T08:04:52.162Z,101290
2017-12-03T08:07:20.447Z,101288
2017-12-03T08:09:48.723Z,101298
2017-12-03T08:12:16.991Z,101294
2017-12-03T08:14:45.335Z,101296
2017-12-03T08:17:13.599Z,101296
2017-12-03T08:19:42.608Z,101297
2017-12-03T08:22:10.873Z,101292
2017-12-03T08:24:39.913Z,101289
2017-12-03T08:27:08.200Z,101293
2017-12-03T08:29:36.514Z,101297
2017-12-03T08:32:05.778Z,101296
2017-12-03T08:34:34.040Z,101295
2017-12-03T08:37:02.342Z,101296
2017-12-03T08:39:30.624Z,101287
2017-12-03T08:41:58.901Z,101296
2017-12-03T08:44:27.414Z,101283
2017-12-03T08:46:55.744Z,101288
2017-12-03T08:49:24.883Z,101285
2017-12-03T08:51:53.208Z,101286
2017-12-03T08:54:21.531Z,101280
2017-12-03T08:56:50.179Z,101274
2017-12-03T08:59:18.503Z,101284
2017-12-03T09:01:47.138Z,101289
2017-12-03T09:04:15.432Z,101277
2017-12-03T09:06:43.912Z,101264
2017-12-03T09:09:12.947Z,101265
2017-12-03T09:11:41.270Z,101254
2017-12-03T09:14:09.607Z,101256
2017-12-03T09:16:37.909Z,101257
2017-12-03T09:19:06.461Z,101255
2017-12-03T09:21:35.585Z,101259
2017-12-03T09:24:03.827Z,101253
2017-12-03T09:26:32.065Z,101252
2017-12-03T09:29:00.370Z,101247
2017-12-03T09:31:28.696Z,101242
2017-12-03T09:33:56.993Z,101234
2017-12-03T09:36:25.423Z,101230
2017-12-03T09:38:53.755Z,101225
2017-12-03T09:41:22.056Z,101214
2017-12-03T09:43:50.409Z,101221
2017-12-03T09:46:18.657Z,101225
2017-12-03T09:48:46.955Z,101222
2017-12-03T09:51:15.279Z,101211
2017-12-03T09:53:43.528Z,101208
2017-12-03T09:56:12.614Z,101202
2017-12-03T09:58:41.719Z,101207
2017-12-03T10:01:10.014Z,101195
2017-12-03T10:03:38.891Z,101200
2017-12-03T10:06:09.053Z,101192
2017-12-03T10:08:37.358Z,101200
2017-12-03T10:11:05.614Z,101193
2017-12-03T10:13:34.529Z,101186
2017-12-03T10:16:03.560Z,101196
2017-12-03T10:18:31.798Z,101186
2017-12-03T10:21:01.520Z,101184
2017-12-03T10:23:30.598Z,101180
2017-12-03T10:25:58.839Z,101179
2017-12-03T10:28:27.148Z,101176
2017-12-03T10:30:55.427Z,101175
2017-12-03T10:33:23.698Z,101172
2017-12-03T10:35:51.986Z,101169
2017-12-03T10:38:21.003Z,101164
2017-12-03T10:40:49.270Z,101163
2017-12-03T10:43:17.649Z,101157
2017-12-03T10:45:46.673Z,101149
2017-12-03T10:48:14.947Z,101146
2017-12-03T10:50:43.262Z,101148
2017-12-03T10:53:11.539Z,101145
2017-12-03T10:55:39.796Z,101144
2017-12-03T10:58:09.067Z,101137
2017-12-03T11:00:37.882Z,101125
2017-12-03T11:03:06.138Z,101121
2017-12-03T11:05:34.531Z,101126
2017-12-03T11:08:02.820Z,101120
2017-12-03T11:10:31.090Z,101127
2017-12-03T11:12:59.440Z,101118
2017-12-03T11:15:27.754Z,101122
2017-12-03T11:17:56.023Z,101119
2017-12-03T11:20:24.440Z,101111
2017-12-03T11:22:52.711Z,101104
2017-12-03T11:25:21.731Z,101104
2017-12-03T11:27:50.177Z,101090
2017-12-03T11:30:19.206Z,101093
2017-12-03T11:32:47.499Z,101087
2017-12-03T11:35:16.654Z,101096
2017-12-03T11:37:45.668Z,101090
2017-12-03T11:40:13.974Z,101087
2017-12-03T11:42:43.059Z,101076
2017-12-03T11:45:11.416Z,101073
2017-12-03T11:47:39.702Z,101072
2017-12-03T11:50:08.788Z,101067
2017-12-03T11:52:37.057Z,101059
2017-12-03T11:55:05.389Z,101066
2017-12-03T11:57:34.431Z,101068
2017-12-03T12:00:02.744Z,101053
2017-12-03T12:02:31.038Z,101053
2017-12-03T12:04:59.313Z,101052
2017-12-03T12:07:27.552Z,101040
2017-12-03T12:09:57.917Z,101038
2017-12-03T12:12:26.203Z,101043
2017-12-03T12:14:54.509Z,101026
2017-12-03T12:17:22.942Z,101013
2017-12-03T12:19:51.189Z,101015
2017-12-03T12:22:19.440Z,101011
2017-12-03T12:24:47.766Z,101000
2017-12-03T12:27:16.014Z,101008
2017-12-03T12:29:44.270Z,100999
2017-12-03T12:32:12.768Z,101004
2017-12-03T12:34:41.051Z,100987
2017-12-03T12:37:09.299Z,100984
2017-12-03T12:39:37.584Z,100985
2017-12-03T12:42:05.873Z,100991
2017-12-03T12:44:34.154Z,100992
2017-12-03T12:47:02.446Z,100982
2017-12-03T12:49:30.729Z,100982
2017-12-03T12:51:59.062Z,100968
2017-12-03T12:54:27.433Z,100968
2017-12-03T12:56:55.700Z,100961
2017-12-03T12:59:24.730Z,100962
2017-12-03T13:01:53.072Z,100969
2017-12-03T13:04:22.123Z,100960
2017-12-03T13:06:50.374Z,100962
2017-12-03T13:09:18.786Z,100951
2017-12-03T13:11:47.039Z,100950
2017-12-03T13:14:15.288Z,100955
2017-12-03T13:16:43.831Z,100962
2017-12-03T13:19:12.867Z,100959
2017-12-03T13:21:41.094Z,100961
2017-12-03T13:24:09.627Z,100959
2017-12-03T13:26:38.093Z,100952
2017-12-03T13:29:07.494Z,100951
2017-12-03T13:31:35.926Z,100946
2017-12-03T13:34:04.172Z,100948
2017-12-03T13:36:32.446Z,100944
2017-12-03T13:39:00.735Z,100946
2017-12-03T13:41:28.978Z,100952
2017-12-03T13:43:57.228Z,100945
2017-12-03T13:46:25.547Z,100946
2017-12-03T13:48:53.777Z,100943
2017-12-03T13:51:23.191Z,100942
2017-12-03T13:53:52.263Z,100954
2017-12-03T13:56:20.519Z,100953
2017-12-03T13:58:48.765Z,100955
2017-12-03T14:01:17.149Z,100949
2017-12-03T14:03:45.438Z,100958
2017-12-03T14:06:13.744Z,100950
2017-12-03T14:08:42.072Z,100951
2017-12-03T14:11:10.905Z,100944
2017-12-03T14:13:39.163Z,100941
2017-12-03T14:16:07.847Z,100945
2017-12-03T14:18:36.167Z,100946
2017-12-03T14:21:05.193Z,100932
2017-12-03T14:23:34.298Z,100940
2017-12-03T14:26:02.568Z,100943
2017-12-03T14:28:30.811Z,100941
2017-12-03T14:30:59.889Z,100941
2017-12-03T14:33:28.168Z,100951
2017-12-03T14:35:57.185Z,100941
2017-12-03T14:38:25.478Z,100942
2017-12-03T14:40:53.728Z,100942
2017-12-03T14:43:22.742Z,100936
2017-12-03T14:45:51.026Z,100946
2017-12-03T14:48:19.323Z,100945
2017-12-03T14:50:47.627Z,100938
2017-12-03T14:53:15.960Z,100945
2017-12-03T14:55:44.228Z,100943
2017-12-03T14:58:12.477Z,100933
2017-12-03T15:00:41.671Z,100929
2017-12-03T15:03:10.712Z,100937
2017-12-03T15:05:38.967Z,100935
2017-12-03T15:08:07.317Z,100938
2017-12-03T15:10:36.339Z,100941
2017-12-03T15:13:04.597Z,100941
2017-12-03T15:15:32.907Z,100938
2017-12-03T15:18:01.224Z,100933
2017-12-03T15:20:30.323Z,100936
2017-12-03T15:22:58.685Z,100931
2017-12-03T15:25:27.110Z,100941
2017-12-03T15:27:56.303Z,100925
2017-12-03T15:30:24.618Z,100936
2017-12-03T15:32:52.880Z,100929
2017-12-03T15:35:21.316Z,100920
2017-12-03T15:37:50.436Z,100930
2017-12-03T15:40:18.718Z,100925
2017-12-03T15:42:47.007Z,100926
2017-12-03T15:45:15.314Z,100919
2017-12-03T15:47:43.603Z,100917
2017-12-03T15:50:11.916Z,100916
2017-12-03T15:52:40.247Z,100924
2017-12-03T15:55:08.535Z,100921
2017-12-03T15:57:37.541Z,100926
2017-12-03T16:00:06.682Z,100925
2017-12-03T16:02:34.962Z,100920
2017-12-03T16:05:03.213Z,100913
2017-12-03T16:07:31.548Z,100919
2017-12-03T16:09:59.824Z,100910
2017-12-03T16:12:28.115Z,100914
2017-12-03T16:14:56.454Z,100903
2017-12-03T16:17:24.697Z,100915
2017-12-03T16:19:52.977Z,100908
2017-12-03T16:22:21.352Z,100909
2017-12-03T16:24:49.646Z,100893
2017-12-03T16:27:17.947Z,100889
2017-12-03T16:29:46.359Z,100876
2017-12-03T16:32:14.604Z,100887
2017-12-03T16:34:42.853Z,100876
2017-12-03T16:37:11.147Z,100879
2017-12-03T16:39:39.419Z,100881
2017-12-03T16:42:07.703Z,100891
2017-12-03T16:44:36.046Z,100886
2017-12-03T16:47:04.344Z,100887
2017-12-03T16:49:32.619Z,100879
2017-12-03T16:52:00.915Z,100877
2017-12-03T16:54:29.157Z,100893
2017-12-03T16:56:57.428Z,100879
2017-12-03T16:59:25.722Z,100877
2017-12-03T17:01:53.959Z,100885
2017-12-03T17:04:22.297Z,100881
2017-12-03T17:06:50.632Z,100895
2017-12-03T17:09:18.885Z,100886
2017-12-03T17:11:47.204Z,100896
2017-12-03T17:14:15.523Z,100900
2017-12-03T17:16:44.550Z,100893
2017-12-03T17:19:12.807Z,100887
2017-12-03T17:21:41.878Z,100882
2017-12-03T17:24:10.200Z,100876
2017-12-03T17:26:38.465Z,100876
2017-12-03T17:29:06.740Z,100867
2017-12-03T17:31:35.011Z,100871
2017-12-03T17:34:03.294Z,100873
2017-12-03T17:36:31.590Z,100879
2017-12-03T17:38:59.831Z,100871
2017-12-03T17:41:28.131Z,100862
2017-12-03T17:43:56.435Z,100852
2017-12-03T17:46:24.671Z,100858
2017-12-03T17:48:52.910Z,100855
2017-12-03T17:51:21.949Z,100862
2017-12-03T17:53:50.193Z,100857
2017-12-03T17:56:19.203Z,100854
2017-12-03T17:58:47.496Z,100876
2017-12-03T18:01:15.726Z,100873
2017-12-03T18:03:43.990Z,100866
2017-12-03T18:06:12.263Z,100858
2017-12-03T18:08:40.515Z,100849
2017-12-03T18:11:08.739Z,100853
2017-12-03T18:13:37.028Z,100843
2017-12-03T18:16:05.292Z,100848
2017-12-03T18:18:34.316Z,100848
2017-12-03T18:34:11.069Z,100834
2017-12-03T18:36:39.303Z,100838
2017-12-03T18:39:07.536Z,100824
2017-12-03T18:41:35.793Z,100831
2017-12-03T18:44:04.027Z,100835
2017-12-03T18:46:33.197Z,100821
2017-12-03T18:49:01.528Z,100820
2017-12-03T18:51:29.761Z,100821
2017-12-03T18:53:58.005Z,100821
2017-12-03T18:56:26.411Z,100820
2017-12-03T18:58:54.646Z,100830
2017-12-03T19:01:22.875Z,100823
2017-12-03T19:03:51.199Z,100829
2017-12-03T19:06:19.448Z,100835
2017-12-03T19:08:48.452Z,100833
2017-12-03T19:11:16.768Z,100833
2017-12-03T19:13:44.997Z,100836
2017-12-03T19:16:13.994Z,100833
2017-12-03T19:18:42.299Z,100836
2017-12-03T19:21:10.555Z,100845
2017-12-03T19:23:38.783Z,100845
2017-12-03T19:26:07.071Z,100849
2017-12-03T19:28:35.294Z,100853
2017-12-03T19:31:03.514Z,100856
2017-12-03T19:33:31.816Z,100854
2017-12-03T19:36:00.807Z,100847
2017-12-03T19:38:29.802Z,100844
2017-12-03T19:40:59.006Z,100854
2017-12-03T19:43:27.263Z,100847
2017-12-03T19:45:56.289Z,100843
2017-12-03T19:48:24.669Z,100848
2017-12-03T19:50:52.895Z,100829
2017-12-03T19:53:21.130Z,100815
2017-12-03T19:55:49.423Z,100816
2017-12-03T19:58:17.703Z,100827
2017-12-03T20:00:45.942Z,100835
2017-12-03T20:03:14.227Z,100825
2017-12-03T20:05:42.472Z,100813
2017-12-03T20:08:11.502Z,100818
2017-12-03T20:10:39.780Z,100813
2017-12-03T20:13:08.791Z,100802
2017-12-03T20:15:37.345Z,100800
2017-12-03T20:18:05.603Z,100802
2017-12-03T20:20:33.837Z,100797
2017-12-03T20:23:02.076Z,100803
2017-12-03T20:25:30.351Z,100795
2017-12-03T20:27:58.647Z,100785
2017-12-03T20:30:27.672Z,100779
2017-12-03T20:32:57.094Z,100775
2017-12-03T20:35:25.330Z,100785
2017-12-03T20:37:53.563Z,100775
2017-12-03T20:40:21.830Z,100775
2017-12-03T20:42:50.068Z,100778
2017-12-03T20:45:19.090Z,100775
2017-12-03T20:47:47.353Z,100778
2017-12-03T20:50:16.342Z,100773
2017-12-03T20:52:45.332Z,100777
2017-12-03T20:55:14.397Z,100771
2017-12-03T20:57:42.958Z,100768
2017-12-03T21:00:11.211Z,100761
2017-12-03T21:02:39.533Z,100758
2017-12-03T21:05:07.775Z,100749
2017-12-03T21:07:36.026Z,100754
2017-12-03T21:10:05.125Z,100751
2017-12-03T21:12:33.352Z,100741
2017-12-03T21:15:01.575Z,100744
2017-12-03T21:17:29.852Z,100745
2017-12-03T21:19:58.075Z,100742
2017-12-03T21:22:26.302Z,100739
2017-12-03T21:24:54.563Z,100733
2017-12-03T21:27:23.550Z,100719
2017-12-03T21:29:52.554Z,100725
2017-12-03T21:32:21.591Z,100734
2017-12-03T21:34:49.839Z,100734
2017-12-03T21:37:18.095Z,100725
2017-12-03T21:39:47.128Z,100718
2017-12-03T21:42:15.357Z,100729
2017-12-03T21:44:44.355Z,100727
2017-12-03T21:47:13.637Z,100722
2017-12-03T21:49:42.639Z,100713
2017-12-03T21:52:11.626Z,100714
2017-12-03T21:54:40.959Z,100705
2017-12-03T21:57:09.203Z,100723
2017-12-03T21:59:38.198Z,100713
2017-12-03T22:02:07.265Z,100714
2017-12-03T22:04:35.492Z,100712
2017-12-03T22:07:03.768Z,100704
2017-12-03T22:09:32.012Z,100694
2017-12-03T22:12:00.312Z,100708
2017-12-03T22:14:28.538Z,100709
2017-12-03T22:16:56.780Z,100691
2017-12-03T22:19:25.174Z,100697
2017-12-03T22:21:53.414Z,100676
2017-12-03T22:24:22.406Z,100685
2017-12-03T22:26:51.551Z,100680
2017-12-03T22:29:19.782Z,100668
2017-12-03T22:31:47.996Z,100679
2017-12-03T22:34:16.295Z,100672
2017-12-03T22:36:44.530Z,100668
2017-12-03T22:39:12.746Z,100682
2017-12-03T22:41:41.853Z,100684
2017-12-03T22:44:10.841Z,100684
2017-12-03T22:46:39.076Z,100676
2017-12-03T22:49:07.354Z,100691
2017-12-03T22:51:35.658Z,100691
2017-12-03T22:54:03.873Z,100681
2017-12-03T22:56:32.876Z,100679
2017-12-03T22:59:01.163Z,100673
2017-12-03T23:01:29.388Z,100670
2017-12-03T23:03:57.630Z,100667
2017-12-03T23:06:26.078Z,100660
2017-12-03T23:08:54.307Z,100646
2017-12-03T23:11:22.551Z,100658
2017-12-03T23:13:50.856Z,100648
2017-12-03T23:16:19.083Z,100645
2017-12-03T23:18:47.305Z,100649
2017-12-03T23:21:15.589Z,100643
2017-12-03T23:23:43.819Z,100646
2017-12-03T23:26:12.043Z,100634
2017-12-03T23:28:41.093Z,100641
2017-12-03T23:31:09.319Z,100641
2017-12-03T23:33:38.331Z,100629
2017-12-03T23:36:07.393Z,100637
2017-12-03T23:38:35.624Z,100628
2017-12-03T23:41:04.620Z,100630
2017-12-03T23:43:32.868Z,100628
2017-12-03T23:46:01.080Z,100629
2017-12-03T23:48:29.380Z,100630
2017-12-03T23:50:57.599Z,100632
2017-12-03T23:53:25.834Z,100630
2017-12-03T23:55:54.111Z,100632
2017-12-03T23:58:22.341Z,100627
